createdAt,value
2019-03-09T00:00:15.559Z,7.30
2019-03-09T00:02:41.932Z,7.30
2019-03-09T00:05:08.654Z,7.30
2019-03-09T00:07:34.970Z,7.30
2019-03-09T00:10:01.854Z,7.30
2019-03-09T00:12:28.113Z,7.40
2019-03-09T00:14:54.414Z,7.40
2019-03-09T00:17:20.699Z,7.40
2019-03-09T00:19:46.957Z,7.40
2019-03-09T00:22:13.333Z,7.40
2019-03-09T00:24:44.419Z,7.40
2019-03-09T00:27:15.471Z,7.40
2019-03-09T00:29:55.613Z,7.50
2019-03-09T00:32:23.572Z,7.50
2019-03-09T00:34:49.834Z,7.40
2019-03-09T00:37:16.138Z,7.40
2019-03-09T00:39:42.379Z,7.40
2019-03-09T00:42:08.659Z,7.40
2019-03-09T00:44:34.902Z,7.40
2019-03-09T00:47:01.505Z,7.40
2019-03-09T00:49:27.776Z,7.40
2019-03-09T00:51:54.035Z,7.40
2019-03-09T00:54:20.327Z,7.30
2019-03-09T00:56:46.592Z,7.30
2019-03-09T00:59:12.883Z,7.30
2019-03-09T01:01:39.261Z,7.30
2019-03-09T01:04:05.545Z,7.30
2019-03-09T01:06:31.799Z,7.30
2019-03-09T01:08:58.087Z,7.20
2019-03-09T01:11:24.596Z,7.20
2019-03-09T01:13:50.860Z,7.20
2019-03-09T01:16:17.122Z,7.20
2019-03-09T01:18:43.402Z,7.20
2019-03-09T01:21:09.656Z,7.20
2019-03-09T01:23:36.011Z,7.20
2019-03-09T01:26:02.381Z,7.20
2019-03-09T01:28:28.689Z,7.10
2019-03-09T01:30:54.951Z,7.10
2019-03-09T01:33:21.331Z,7.10
2019-03-09T01:35:47.571Z,7.10
2019-03-09T01:38:13.839Z,7.00
2019-03-09T01:40:40.306Z,7.00
2019-03-09T01:43:06.602Z,7.00
2019-03-09T01:45:32.891Z,7.00
2019-03-09T01:47:59.147Z,6.90
2019-03-09T01:50:45.281Z,6.90
2019-03-09T01:53:11.524Z,6.90
2019-03-09T01:55:37.888Z,6.80
2019-03-09T01:58:04.145Z,6.80
2019-03-09T02:00:30.387Z,6.80
2019-03-09T02:02:56.697Z,6.80
2019-03-09T02:05:23.050Z,6.70
2019-03-09T02:07:49.437Z,6.70
2019-03-09T02:10:15.779Z,6.70
2019-03-09T02:12:42.226Z,6.70
2019-03-09T02:15:12.540Z,6.60
2019-03-09T02:17:38.903Z,6.70
2019-03-09T02:20:12.238Z,6.70
2019-03-09T02:22:38.523Z,6.60
2019-03-09T02:25:06.986Z,6.70
2019-03-09T02:27:33.313Z,6.70
2019-03-09T02:29:59.568Z,6.70
2019-03-09T02:32:25.841Z,6.80
2019-03-09T02:34:52.105Z,6.80
2019-03-09T02:37:18.491Z,6.80
2019-03-09T02:39:47.840Z,6.80
2019-03-09T02:42:14.068Z,6.90
2019-03-09T02:44:40.337Z,6.90
2019-03-09T02:47:06.581Z,6.90
2019-03-09T02:49:32.821Z,6.90
2019-03-09T02:52:06.796Z,7.00
2019-03-09T02:54:33.146Z,7.00
2019-03-09T02:56:59.372Z,7.00
2019-03-09T02:59:25.644Z,7.10
2019-03-09T03:01:53.809Z,7.10
2019-03-09T03:04:20.038Z,7.20
2019-03-09T03:06:46.673Z,7.20
2019-03-09T03:09:12.966Z,7.20
2019-03-09T03:11:39.218Z,7.30
2019-03-09T03:14:05.459Z,7.30
2019-03-09T03:16:31.735Z,7.30
2019-03-09T03:18:57.979Z,7.40
2019-03-09T03:21:24.242Z,7.40
2019-03-09T03:23:50.489Z,7.40
2019-03-09T03:26:16.734Z,7.40
2019-03-09T03:28:43.048Z,7.50
2019-03-09T03:31:09.318Z,7.50
2019-03-09T03:33:35.590Z,7.50
2019-03-09T03:36:01.948Z,7.50
2019-03-09T03:38:28.208Z,7.50
2019-03-09T03:40:54.571Z,7.50
2019-03-09T03:43:20.801Z,7.50
2019-03-09T03:45:47.219Z,7.50
2019-03-09T03:48:13.461Z,7.50
2019-03-09T03:50:39.734Z,7.50
2019-03-09T03:53:05.973Z,7.50
2019-03-09T03:55:32.491Z,7.50
2019-03-09T03:57:58.775Z,7.50
2019-03-09T04:00:25.150Z,7.50
2019-03-09T04:02:51.676Z,7.50
2019-03-09T04:05:17.911Z,7.50
2019-03-09T04:07:44.684Z,7.50
2019-03-09T04:10:13.826Z,7.50
2019-03-09T04:12:41.071Z,7.50
2019-03-09T04:15:07.726Z,7.50
2019-03-09T04:17:33.991Z,7.50
2019-03-09T04:20:00.554Z,7.60
2019-03-09T04:22:26.907Z,7.50
2019-03-09T04:25:03.081Z,7.50
2019-03-09T04:27:29.340Z,7.60
2019-03-09T04:29:55.912Z,7.60
2019-03-09T04:32:22.212Z,7.60
2019-03-09T04:34:48.458Z,7.60
2019-03-09T04:37:14.770Z,7.60
2019-03-09T04:39:41.012Z,7.60
2019-03-09T04:42:07.255Z,7.60
2019-03-09T04:44:33.515Z,7.60
2019-03-09T04:46:59.759Z,7.60
2019-03-09T04:49:26.037Z,7.60
2019-03-09T04:51:52.326Z,7.60
2019-03-09T04:54:18.636Z,7.60
2019-03-09T04:56:44.866Z,7.60
2019-03-09T04:59:11.131Z,7.70
2019-03-09T05:01:37.404Z,7.70
2019-03-09T05:04:30.109Z,7.70
2019-03-09T05:06:56.363Z,7.70
2019-03-09T05:09:58.094Z,7.70
2019-03-09T05:12:24.365Z,7.70
2019-03-09T05:14:50.615Z,7.70
2019-03-09T05:17:16.890Z,7.70
2019-03-09T05:19:43.152Z,7.70
2019-03-09T05:22:09.398Z,7.70
2019-03-09T05:24:35.711Z,7.70
2019-03-09T05:27:01.961Z,7.70
2019-03-09T05:29:28.210Z,7.70
2019-03-09T05:31:54.497Z,7.70
2019-03-09T05:34:20.762Z,7.70
2019-03-09T05:36:47.019Z,7.70
2019-03-09T05:39:13.284Z,7.80
2019-03-09T05:41:39.582Z,7.80
2019-03-09T05:44:05.843Z,7.80
2019-03-09T05:46:32.098Z,7.80
2019-03-09T05:48:58.374Z,7.80
2019-03-09T05:51:24.649Z,7.80
2019-03-09T05:53:50.901Z,7.80
2019-03-09T05:56:17.170Z,7.90
2019-03-09T05:58:43.489Z,7.80
2019-03-09T06:01:09.837Z,7.90
2019-03-09T06:03:36.114Z,7.90
2019-03-09T06:06:02.870Z,7.90
2019-03-09T06:08:29.149Z,7.90
2019-03-09T06:10:55.400Z,7.90
2019-03-09T06:13:21.657Z,8.00
2019-03-09T06:15:47.961Z,8.00
2019-03-09T06:18:14.223Z,8.10
2019-03-09T06:20:40.476Z,8.10
2019-03-09T06:23:06.730Z,8.10
2019-03-09T06:25:32.996Z,8.10
2019-03-09T06:27:59.255Z,8.10
2019-03-09T06:30:25.621Z,8.20
2019-03-09T06:33:21.595Z,8.20
2019-03-09T06:36:07.630Z,8.20
2019-03-09T06:38:57.335Z,8.30
2019-03-09T06:41:59.338Z,8.30
2019-03-09T06:44:25.618Z,8.40
2019-03-09T06:46:51.860Z,8.40
2019-03-09T06:49:18.153Z,8.50
2019-03-09T06:51:44.429Z,8.50
2019-03-09T06:54:11.122Z,8.60
2019-03-09T06:56:37.390Z,8.70
2019-03-09T06:59:03.802Z,8.70
2019-03-09T07:01:30.068Z,8.80
2019-03-09T07:03:56.310Z,8.80
2019-03-09T07:06:22.619Z,8.90
2019-03-09T07:08:48.883Z,9.00
2019-03-09T07:11:15.166Z,9.10
2019-03-09T07:13:41.640Z,9.10
2019-03-09T07:16:09.185Z,9.10
2019-03-09T07:18:38.062Z,9.20
2019-03-09T07:21:04.309Z,9.20
2019-03-09T07:23:30.719Z,9.30
2019-03-09T07:25:57.126Z,9.30
2019-03-09T07:28:23.352Z,9.30
2019-03-09T07:30:49.714Z,9.30
2019-03-09T07:33:16.131Z,9.30
2019-03-09T07:35:42.493Z,9.20
2019-03-09T07:38:08.783Z,9.10
2019-03-09T07:40:35.070Z,9.00
2019-03-09T07:43:01.618Z,8.90
2019-03-09T07:45:28.113Z,8.70
2019-03-09T07:47:54.507Z,8.60
2019-03-09T07:50:20.970Z,8.50
2019-03-09T07:52:47.357Z,8.50
2019-03-09T07:55:18.339Z,8.40
2019-03-09T07:57:44.932Z,8.40
2019-03-09T08:00:17.746Z,8.40
2019-03-09T08:02:44.169Z,8.40
2019-03-09T08:05:11.173Z,8.40
2019-03-09T08:07:37.410Z,8.40
2019-03-09T08:10:18.833Z,8.40
2019-03-09T08:12:45.246Z,8.40
2019-03-09T08:15:15.341Z,8.40
2019-03-09T08:17:41.714Z,8.50
2019-03-09T08:20:13.372Z,8.50
2019-03-09T08:22:45.959Z,8.50
2019-03-09T08:25:14.952Z,8.60
2019-03-09T08:27:41.209Z,8.70
2019-03-09T08:30:14.524Z,8.70
2019-03-09T08:32:40.864Z,8.80
2019-03-09T08:35:07.832Z,8.90
2019-03-09T08:37:34.090Z,8.90
2019-03-09T08:40:00.448Z,9.00
2019-03-09T08:42:26.867Z,9.10
2019-03-09T08:44:53.138Z,9.20
2019-03-09T08:47:19.417Z,9.20
2019-03-09T08:49:47.039Z,9.40
2019-03-09T08:52:13.298Z,9.50
2019-03-09T08:54:39.625Z,9.60
2019-03-09T08:57:05.944Z,9.70
2019-03-09T08:59:32.164Z,9.80
2019-03-09T09:01:58.465Z,9.80
2019-03-09T09:04:24.716Z,9.90
2019-03-09T09:06:50.985Z,9.90
2019-03-09T09:09:17.394Z,10.00
2019-03-09T09:11:43.755Z,10.10
2019-03-09T09:14:10.053Z,10.20
2019-03-09T09:16:36.337Z,10.20
2019-03-09T09:19:02.702Z,10.30
2019-03-09T09:21:29.000Z,10.30
2019-03-09T09:23:55.252Z,10.40
2019-03-09T09:26:21.537Z,10.50
2019-03-09T09:28:47.785Z,10.70
2019-03-09T09:31:14.046Z,10.90
2019-03-09T09:33:40.342Z,11.20
2019-03-09T09:36:06.594Z,11.40
2019-03-09T09:38:32.909Z,11.50
2019-03-09T09:40:59.156Z,11.60
2019-03-09T09:43:25.517Z,11.70
2019-03-09T09:45:52.081Z,11.90
2019-03-09T09:48:18.349Z,11.90
2019-03-09T09:50:44.628Z,12.00
2019-03-09T09:53:11.179Z,12.00
2019-03-09T09:55:37.504Z,12.00
2019-03-09T09:58:04.089Z,12.00
2019-03-09T10:00:30.721Z,12.00
2019-03-09T10:03:16.847Z,12.00
2019-03-09T10:05:43.268Z,12.10
2019-03-09T10:08:09.552Z,12.10
2019-03-09T10:10:35.794Z,12.10
2019-03-09T10:13:02.214Z,12.20
2019-03-09T10:15:30.967Z,12.50
2019-03-09T10:17:57.340Z,12.80
2019-03-09T10:20:23.590Z,13.20
2019-03-09T10:22:49.853Z,13.40
2019-03-09T10:25:16.304Z,13.60
2019-03-09T10:27:42.566Z,13.70
2019-03-09T10:30:23.694Z,13.70
2019-03-09T10:32:50.420Z,13.70
2019-03-09T10:35:16.671Z,13.70
2019-03-09T10:37:42.941Z,13.70
2019-03-09T10:40:12.398Z,13.60
2019-03-09T10:42:38.643Z,13.40
2019-03-09T10:45:09.211Z,13.30
2019-03-09T10:47:35.549Z,13.20
2019-03-09T10:50:04.034Z,13.20
2019-03-09T10:52:30.291Z,13.10
2019-03-09T10:54:56.543Z,13.00
2019-03-09T10:57:22.805Z,13.00
2019-03-09T10:59:49.078Z,12.90
2019-03-09T11:02:15.321Z,12.90
2019-03-09T11:04:41.681Z,12.80
2019-03-09T11:07:07.919Z,12.90
2019-03-09T11:09:34.341Z,12.90
2019-03-09T11:12:00.787Z,12.90
2019-03-09T11:14:27.076Z,12.90
2019-03-09T11:16:53.369Z,12.80
2019-03-09T11:19:19.619Z,12.70
2019-03-09T11:21:45.911Z,12.70
2019-03-09T11:24:12.177Z,12.70
2019-03-09T11:26:38.422Z,12.60
2019-03-09T11:29:04.852Z,12.70
2019-03-09T11:31:31.177Z,12.70
2019-03-09T11:33:57.809Z,12.70
2019-03-09T11:36:24.087Z,12.70
2019-03-09T11:38:50.720Z,12.70
2019-03-09T11:41:19.350Z,12.80
2019-03-09T11:43:45.148Z,12.80
2019-03-09T11:46:11.491Z,12.90
2019-03-09T11:48:37.783Z,13.00
2019-03-09T11:51:04.145Z,13.00
2019-03-09T11:53:30.408Z,13.10
2019-03-09T11:55:57.098Z,13.20
2019-03-09T11:58:23.447Z,13.20
2019-03-09T12:00:49.753Z,13.20
2019-03-09T12:03:16.260Z,13.20
2019-03-09T12:05:42.527Z,13.20
2019-03-09T12:08:08.900Z,13.20
2019-03-09T12:10:35.301Z,13.10
2019-03-09T12:13:01.616Z,13.10
2019-03-09T12:15:27.866Z,13.00
2019-03-09T12:17:54.173Z,13.00
2019-03-09T12:20:22.593Z,12.90
2019-03-09T12:22:48.862Z,12.80
2019-03-09T12:25:16.169Z,12.80
2019-03-09T12:27:42.627Z,12.80
2019-03-09T12:30:16.320Z,12.80
2019-03-09T12:32:42.675Z,12.80
2019-03-09T12:35:09.164Z,12.80
2019-03-09T12:37:35.593Z,12.90
2019-03-09T12:40:05.649Z,13.00
2019-03-09T12:42:31.923Z,13.00
2019-03-09T12:44:58.185Z,13.10
2019-03-09T12:47:24.506Z,13.20
2019-03-09T12:49:50.840Z,13.30
2019-03-09T12:52:17.098Z,13.30
2019-03-09T12:54:43.384Z,13.30
2019-03-09T12:57:09.631Z,13.30
2019-03-09T12:59:35.923Z,13.20
2019-03-09T13:02:02.307Z,13.20
2019-03-09T13:04:28.624Z,13.30
2019-03-09T13:06:56.122Z,13.40
2019-03-09T13:09:22.627Z,13.40
2019-03-09T13:11:48.896Z,13.50
2019-03-09T13:14:15.261Z,13.50
2019-03-09T13:16:41.744Z,13.50
2019-03-09T13:19:08.111Z,13.60
2019-03-09T13:21:34.411Z,13.60
2019-03-09T13:24:00.713Z,13.60
2019-03-09T13:26:26.978Z,13.60
2019-03-09T13:28:53.226Z,13.50
2019-03-09T13:31:19.508Z,13.50
2019-03-09T13:33:45.852Z,13.50
2019-03-09T13:36:12.125Z,13.50
2019-03-09T13:38:38.454Z,13.40
2019-03-09T13:41:04.916Z,13.40
2019-03-09T13:43:32.344Z,13.40
2019-03-09T13:45:58.623Z,13.30
2019-03-09T13:48:24.902Z,13.30
2019-03-09T13:50:51.365Z,13.30
2019-03-09T13:53:18.451Z,13.30
2019-03-09T13:55:44.817Z,13.20
2019-03-09T13:58:11.061Z,13.20
2019-03-09T14:00:40.789Z,13.10
2019-03-09T14:03:06.345Z,13.00
2019-03-09T14:05:32.617Z,12.90
2019-03-09T14:07:58.886Z,12.90
2019-03-09T14:10:25.252Z,12.80
2019-03-09T14:12:52.497Z,12.80
2019-03-09T14:15:18.979Z,12.70
2019-03-09T14:17:45.242Z,12.70
2019-03-09T14:20:15.201Z,12.60
2019-03-09T14:22:41.451Z,12.50
2019-03-09T14:25:14.188Z,12.50
2019-03-09T14:27:40.597Z,12.50
2019-03-09T14:30:15.814Z,12.40
2019-03-09T14:32:42.309Z,12.40
2019-03-09T14:35:08.771Z,12.40
2019-03-09T14:37:35.245Z,12.30
2019-03-09T14:40:01.929Z,12.30
2019-03-09T14:42:28.224Z,12.20
2019-03-09T14:44:56.880Z,12.20
2019-03-09T14:47:22.779Z,12.20
2019-03-09T14:49:49.181Z,12.20
2019-03-09T14:52:15.450Z,12.20
2019-03-09T14:54:41.710Z,12.20
2019-03-09T14:57:07.985Z,12.20
2019-03-09T14:59:34.235Z,12.20
2019-03-09T15:02:00.527Z,12.10
2019-03-09T15:04:26.844Z,12.10
2019-03-09T15:06:53.138Z,12.10
2019-03-09T15:09:19.427Z,12.10
2019-03-09T15:11:45.708Z,12.10
2019-03-09T15:14:12.235Z,12.10
2019-03-09T15:16:38.599Z,12.10
2019-03-09T15:19:04.851Z,12.10
2019-03-09T15:21:31.287Z,12.10
2019-03-09T15:23:57.536Z,12.20
2019-03-09T15:26:23.841Z,12.20
2019-03-09T15:28:50.467Z,12.20
2019-03-09T15:31:16.733Z,12.20
2019-03-09T15:33:42.984Z,12.20
2019-03-09T15:36:09.285Z,12.20
2019-03-09T15:38:35.598Z,12.20
2019-03-09T15:41:02.011Z,12.20
2019-03-09T15:43:28.263Z,12.20
2019-03-09T15:45:54.527Z,12.10
2019-03-09T15:48:21.970Z,12.10
2019-03-09T15:50:48.236Z,12.00
2019-03-09T15:53:14.584Z,12.00
2019-03-09T15:55:40.993Z,12.00
2019-03-09T15:58:07.458Z,12.00
2019-03-09T16:00:33.927Z,11.90
2019-03-09T16:03:00.361Z,11.90
2019-03-09T16:05:26.757Z,11.80
2019-03-09T16:07:53.113Z,11.80
2019-03-09T16:10:20.785Z,11.70
2019-03-09T16:12:47.082Z,11.50
2019-03-09T16:15:15.164Z,11.40
2019-03-09T16:17:41.537Z,11.30
2019-03-09T16:20:19.362Z,11.10
2019-03-09T16:22:45.751Z,11.00
2019-03-09T16:25:12.226Z,10.90
2019-03-09T16:27:38.481Z,10.90
2019-03-09T16:30:10.506Z,10.80
2019-03-09T16:32:36.746Z,10.70
2019-03-09T16:35:06.026Z,10.70
2019-03-09T16:37:32.300Z,10.70
2019-03-09T16:39:58.563Z,10.70
2019-03-09T16:42:24.819Z,10.70
2019-03-09T16:44:51.088Z,10.70
2019-03-09T16:47:17.394Z,10.60
2019-03-09T16:49:43.646Z,10.60
2019-03-09T16:52:09.928Z,10.60
2019-03-09T16:54:36.184Z,10.60
2019-03-09T16:57:02.458Z,10.60
2019-03-09T16:59:28.836Z,10.60
2019-03-09T17:01:55.092Z,10.60
2019-03-09T17:04:21.406Z,10.60
2019-03-09T17:06:47.728Z,10.50
2019-03-09T17:09:14.046Z,10.50
2019-03-09T17:11:41.314Z,10.50
2019-03-09T17:14:07.574Z,10.50
2019-03-09T17:16:33.824Z,10.50
2019-03-09T17:19:00.091Z,10.50
2019-03-09T17:21:26.386Z,10.50
2019-03-09T17:23:52.627Z,10.50
2019-03-09T17:26:18.934Z,10.50
2019-03-09T17:28:45.262Z,10.50
2019-03-09T17:31:11.514Z,10.50
2019-03-09T17:33:37.747Z,10.50
2019-03-09T17:36:04.033Z,10.50
2019-03-09T17:38:30.631Z,10.50
2019-03-09T17:40:56.867Z,10.50
2019-03-09T17:43:23.167Z,10.50
2019-03-09T17:45:49.521Z,10.60
2019-03-09T17:48:15.790Z,10.60
2019-03-09T17:50:42.089Z,10.60
2019-03-09T17:53:08.326Z,10.60
2019-03-09T17:55:34.637Z,10.60
2019-03-09T17:58:00.887Z,10.60
2019-03-09T18:00:30.375Z,10.60
2019-03-09T18:02:56.671Z,10.60
2019-03-09T18:05:23.122Z,10.60
2019-03-09T18:07:49.413Z,10.60
2019-03-09T18:10:29.924Z,10.60
2019-03-09T18:12:56.223Z,10.50
2019-03-09T18:15:22.487Z,10.60
2019-03-09T18:17:48.806Z,10.50
2019-03-09T18:20:15.174Z,10.50
2019-03-09T18:22:41.480Z,10.50
2019-03-09T18:25:08.016Z,10.40
2019-03-09T18:27:34.319Z,10.40
2019-03-09T18:30:00.945Z,10.50
2019-03-09T18:32:27.228Z,10.50
2019-03-09T18:34:53.747Z,10.50
2019-03-09T18:37:20.232Z,10.40
2019-03-09T18:39:46.490Z,10.40
2019-03-09T18:42:12.741Z,10.40
2019-03-09T18:44:39.315Z,10.40
2019-03-09T18:47:05.778Z,10.40
2019-03-09T18:49:32.443Z,10.40
2019-03-09T18:51:58.934Z,10.40
2019-03-09T18:54:25.357Z,10.40
2019-03-09T18:56:51.631Z,10.40
2019-03-09T18:59:18.355Z,10.40
2019-03-09T19:01:45.069Z,10.50
2019-03-09T19:04:11.924Z,10.40
2019-03-09T19:06:38.591Z,10.50
2019-03-09T19:09:07.709Z,10.50
2019-03-09T19:11:33.992Z,10.50
2019-03-09T19:14:06.849Z,10.50
2019-03-09T19:16:33.766Z,10.50
2019-03-09T19:19:00.903Z,10.50
2019-03-09T19:21:28.131Z,10.50
2019-03-09T19:23:55.722Z,10.50
2019-03-09T19:26:23.205Z,10.60
2019-03-09T19:28:50.327Z,10.50
2019-03-09T19:31:17.972Z,10.50
2019-03-09T19:33:45.797Z,10.60
2019-03-09T19:36:14.159Z,10.60
2019-03-09T19:38:42.392Z,10.60
2019-03-09T19:41:10.408Z,10.60
2019-03-09T19:43:38.287Z,10.60
2019-03-09T19:46:06.148Z,10.60
2019-03-09T19:48:34.069Z,10.60
2019-03-09T19:51:01.886Z,10.60
2019-03-09T19:53:29.861Z,10.60
2019-03-09T19:55:57.965Z,10.70
2019-03-09T19:58:25.975Z,10.70
2019-03-09T20:00:53.963Z,10.70
2019-03-09T20:03:21.834Z,10.70
2019-03-09T20:05:49.772Z,10.80
2019-03-09T20:08:17.767Z,10.70
2019-03-09T20:10:45.669Z,10.70
2019-03-09T20:13:13.920Z,10.80
2019-03-09T20:15:41.747Z,10.80
2019-03-09T20:18:09.684Z,10.80
2019-03-09T20:20:37.768Z,10.90
2019-03-09T20:23:05.851Z,10.90
2019-03-09T20:25:33.722Z,10.90
2019-03-09T20:28:01.698Z,10.90
2019-03-09T20:30:29.972Z,11.00
2019-03-09T20:32:58.223Z,11.00
2019-03-09T20:35:27.958Z,11.00
2019-03-09T20:37:56.700Z,11.00
2019-03-09T20:40:26.564Z,11.00
2019-03-09T20:42:54.399Z,11.00
2019-03-09T20:45:22.686Z,11.10
2019-03-09T20:47:50.897Z,11.10
2019-03-09T20:50:22.919Z,11.10
2019-03-09T20:52:50.909Z,11.10
2019-03-09T20:55:18.818Z,11.10
2019-03-09T20:57:46.847Z,11.10
2019-03-09T21:00:20.375Z,11.10
2019-03-09T21:02:48.394Z,11.10
2019-03-09T21:05:16.467Z,11.10
2019-03-09T21:07:44.380Z,11.10
2019-03-09T21:10:18.305Z,11.10
2019-03-09T21:13:03.067Z,11.10
2019-03-09T21:15:31.976Z,11.10
2019-03-09T21:17:59.840Z,11.10
2019-03-09T21:20:27.970Z,11.10
2019-03-09T21:22:56.095Z,11.10
2019-03-09T21:25:24.068Z,11.10
2019-03-09T21:27:51.896Z,11.10
2019-03-09T21:30:19.996Z,11.10
2019-03-09T21:32:47.946Z,11.10
2019-03-09T21:35:15.810Z,11.10
2019-03-09T21:37:44.098Z,11.10
2019-03-09T21:40:12.071Z,11.20
2019-03-09T21:42:39.932Z,11.20
2019-03-09T21:45:13.310Z,11.20
2019-03-09T21:47:40.870Z,11.20
2019-03-09T21:50:13.436Z,11.20
2019-03-09T21:52:40.472Z,11.20
2019-03-09T21:55:12.599Z,11.20
2019-03-09T21:57:38.944Z,11.20
2019-03-09T22:00:12.255Z,11.20
2019-03-09T22:02:38.791Z,11.30
2019-03-09T22:05:09.485Z,11.30
2019-03-09T22:07:35.791Z,11.30
2019-03-09T22:10:06.272Z,11.30
2019-03-09T22:12:33.291Z,11.30
2019-03-09T22:14:59.855Z,11.30
2019-03-09T22:17:26.157Z,11.30
2019-03-09T22:19:52.922Z,11.30
2019-03-09T22:22:19.288Z,11.30
2019-03-09T22:24:45.590Z,11.30
2019-03-09T22:27:11.857Z,11.30
2019-03-09T22:29:38.145Z,11.30
2019-03-09T22:32:04.434Z,11.30
2019-03-09T22:34:30.796Z,11.30
2019-03-09T22:36:57.082Z,11.30
2019-03-09T22:39:23.437Z,11.30
2019-03-09T22:41:49.713Z,11.40
2019-03-09T22:44:15.987Z,11.40
2019-03-09T22:46:42.285Z,11.40
2019-03-09T22:49:08.579Z,11.40
2019-03-09T22:51:35.099Z,11.40
2019-03-09T22:54:02.331Z,11.50
2019-03-09T22:56:28.669Z,11.40
2019-03-09T22:58:55.217Z,11.40
2019-03-09T23:01:22.066Z,11.40
2019-03-09T23:03:48.401Z,11.40
2019-03-09T23:06:14.658Z,11.40
2019-03-09T23:08:40.902Z,11.40
2019-03-09T23:11:07.164Z,11.40
2019-03-09T23:13:34.881Z,11.40
2019-03-09T23:16:01.229Z,11.40
2019-03-09T23:18:27.497Z,11.40
2019-03-09T23:20:54.649Z,11.40
2019-03-09T23:23:21.983Z,11.40
2019-03-09T23:25:48.247Z,11.40
2019-03-09T23:28:15.073Z,11.40
2019-03-09T23:30:41.603Z,11.40
2019-03-09T23:33:08.003Z,11.40
2019-03-09T23:35:34.567Z,11.40
2019-03-09T23:38:01.678Z,11.40
2019-03-09T23:40:28.272Z,11.40
2019-03-09T23:42:54.553Z,11.40
2019-03-09T23:45:26.218Z,11.40
2019-03-09T23:47:52.692Z,11.40
2019-03-09T23:50:19.558Z,11.40
2019-03-09T23:52:46.444Z,11.40
2019-03-09T23:55:22.174Z,11.30
2019-03-09T23:57:42.519Z,11.40
